Time;durP1;ratioP1;P1;durP2;ratioP2;P2;SDS_P1;SDS_P2;PMS_P1;PMS_P2;Temp;Humidity;BMP_temperature;BMP_pressure;BME280_temperature;BME280_humidity;BME280_pressure;Samples;Min_cycle;Max_cycle;Signal;HPM_P1;HPM_P2
2024/01/11 00:02:39;;;;;;;317.40;132.70;;;;;;;-5.82;48.28;99964.31;136394;1280;22557;-81
2024/01/11 00:05:42;;;;;;;303.60;124.50;;;;;;;-6.33;49.67;99962.10;136627;1280;22341;-81
2024/01/11 00:08:45;;;;;;;316.00;130.90;;;;;;;-6.73;51.57;99956.05;136248;1280;22253;-82
2024/01/11 00:11:47;;;;;;;303.80;120.70;;;;;;;-6.99;52.71;99955.29;136783;1263;22605;-82
2024/01/11 00:14:50;;;;;;;303.00;125.50;;;;;;;-5.38;88.11;99942.21;136826;1280;22409;-82
2024/01/11 00:17:52;;;;;;;309.70;127.50;;;;;;;-1.99;79.82;99942.62;136854;1280;22563;-81
2024/01/11 00:20:55;;;;;;;329.10;138.60;;;;;;;-3.12;57.73;99956.80;136831;1280;22275;-81
2024/01/11 00:23:57;;;;;;;331.50;136.80;;;;;;;-4.32;56.14;99962.33;136813;1280;22574;-81
2024/01/11 00:26:59;;;;;;;310.70;128.60;;;;;;;-5.30;57.00;99963.70;136820;1280;22376;-80
2024/01/11 00:30:05;;;;;;;329.10;130.20;;;;;;;-6.17;59.26;99968.48;136629;1280;22649;-81
2024/01/11 00:33:08;;;;;;;310.90;126.50;;;;;;;-6.92;60.29;99969.25;136832;1280;22199;-81
2024/01/11 00:36:11;;;;;;;331.30;128.00;;;;;;;-7.40;61.94;99973.80;136799;1280;22601;-81
2024/01/11 00:39:13;;;;;;;343.70;138.90;;;;;;;-7.77;64.00;99980.86;136815;1280;22698;-81
2024/01/11 00:42:16;;;;;;;324.80;132.10;;;;;;;-8.05;63.91;99975.33;136752;1280;23226;-81
2024/01/11 00:45:18;;;;;;;290.40;112.60;;;;;;;-8.29;64.39;99974.07;136829;1280;22685;-81
2024/01/11 00:48:21;;;;;;;283.40;117.50;;;;;;;-8.50;65.15;99966.29;136859;1280;22319;-82
2024/01/11 00:51:23;;;;;;;270.40;101.40;;;;;;;-8.62;65.70;99966.27;136746;1280;22242;-82
2024/01/11 00:54:25;;;;;;;261.40;97.70;;;;;;;-8.69;66.31;99957.86;136813;1280;22937;-81
2024/01/11 00:57:28;;;;;;;269.50;108.80;;;;;;;-8.79;66.87;99950.25;137197;1270;22701;-82
2024/01/11 01:00:30;;;;;;;272.70;103.20;;;;;;;-8.87;66.89;99941.98;137185;1276;22342;-82
2024/01/11 01:03:33;;;;;;;276.70;108.60;;;;;;;-8.94;67.24;99938.86;137134;1276;22353;-82
2024/01/11 01:06:35;;;;;;;273.90;108.50;;;;;;;-9.02;67.86;99938.61;137239;1276;22226;-82
2024/01/11 01:09:38;;;;;;;291.30;113.60;;;;;;;-9.05;68.28;99935.75;137198;1276;22760;-82
2024/01/11 01:12:40;;;;;;;281.30;108.00;;;;;;;-9.05;68.80;99931.05;137192;1276;22379;-82
2024/01/11 01:15:43;;;;;;;290.10;113.00;;;;;;;-9.01;69.20;99924.42;137123;1276;22463;-82
2024/01/11 01:18:45;;;;;;;280.00;109.70;;;;;;;-8.99;69.29;99924.04;137216;1276;22278;-82
2024/01/11 01:21:47;;;;;;;267.90;107.30;;;;;;;-8.96;69.77;99921.36;137125;1276;22268;-82
2024/01/11 01:24:52;;;;;;;274.60;104.00;;;;;;;-8.90;70.29;99920.41;137080;1276;22600;-81
2024/01/11 01:27:55;;;;;;;264.60;108.60;;;;;;;-8.90;70.91;99919.64;137188;1276;22433;-82
2024/01/11 01:30:57;;;;;;;292.80;112.90;;;;;;;-8.93;70.74;99918.28;137210;1276;23283;-81
2024/01/11 01:34:00;;;;;;;264.00;99.50;;;;;;;-8.94;70.62;99922.82;137228;1276;22284;-82
2024/01/11 01:37:02;;;;;;;264.40;101.80;;;;;;;-8.95;70.70;99923.45;136989;1276;22334;-82
2024/01/11 01:40:05;;;;;;;274.00;109.30;;;;;;;-8.96;71.04;99929.75;137143;1276;22339;-82
2024/01/11 01:43:07;;;;;;;258.20;100.00;;;;;;;-8.97;71.14;99929.40;137085;1276;23183;-82
2024/01/11 01:46:14;;;;;;;291.40;116.40;;;;;;;-9.02;71.18;99934.23;137221;1276;22277;-82
2024/01/11 01:49:22;;;;;;;322.60;123.40;;;;;;;-9.05;71.20;99934.36;137328;1276;22297;-82
2024/01/11 01:52:24;;;;;;;319.00;123.10;;;;;;;-9.11;71.09;99936.01;137142;1276;22551;-82
2024/01/11 01:55:27;;;;;;;311.40;119.30;;;;;;;-9.11;71.14;99932.94;137057;1276;22601;-80
2024/01/11 01:58:31;;;;;;;252.10;99.20;;;;;;;-9.15;70.84;99925.77;137196;1276;22369;-82
2024/01/11 02:01:34;;;;;;;279.50;104.70;;;;;;;-9.20;71.05;99931.26;137174;1276;22205;-82
2024/01/11 02:04:36;;;;;;;260.60;99.60;;;;;;;-9.24;71.26;99923.44;137161;1276;22825;-82
2024/01/11 02:07:39;;;;;;;277.40;96.10;;;;;;;-9.28;70.97;99904.77;137254;1276;22276;-82
2024/01/11 02:10:41;;;;;;;251.90;95.40;;;;;;;-9.32;71.01;99899.48;137211;1276;22339;-83
2024/01/11 02:13:44;;;;;;;248.50;100.70;;;;;;;-9.34;71.71;99897.59;137087;1276;22250;-82
2024/01/11 02:16:46;;;;;;;252.70;97.60;;;;;;;-9.33;72.08;99886.23;137220;1276;22353;-82
2024/01/11 02:19:48;;;;;;;254.70;97.70;;;;;;;-9.28;72.49;99874.62;137074;1276;22689;-82
2024/01/11 02:22:51;;;;;;;228.30;88.20;;;;;;;-9.21;72.73;99876.71;137094;1276;22762;-81
2024/01/11 02:25:53;;;;;;;216.30;85.40;;;;;;;-8.81;82.69;99868.35;137104;1276;22317;-81
2024/01/11 02:28:56;;;;;;;237.10;93.80;;;;;;;-8.09;79.26;99866.46;137140;1276;22830;-80
2024/01/11 02:31:58;;;;;;;235.10;93.60;;;;;;;-8.22;75.24;99864.52;137182;1276;22229;-81
2024/01/11 02:35:00;;;;;;;245.20;95.40;;;;;;;-8.32;74.39;99860.73;137181;1276;22227;-81
2024/01/11 02:38:03;;;;;;;233.50;88.30;;;;;;;-8.42;74.56;99855.89;137227;1276;22829;-81
2024/01/11 02:41:05;;;;;;;246.00;95.10;;;;;;;-8.49;74.23;99854.33;137268;1271;22257;-80
2024/01/11 02:44:08;;;;;;;243.30;92.20;;;;;;;-8.49;74.45;99859.71;137173;1276;22225;-81
2024/01/11 02:47:10;;;;;;;209.70;83.90;;;;;;;-8.52;74.15;99855.36;137195;1276;22256;-82
2024/01/11 02:50:13;;;;;;;220.10;87.70;;;;;;;-8.55;73.90;99843.79;137190;1276;22485;-82
2024/01/11 02:53:15;;;;;;;206.30;79.40;;;;;;;-8.56;73.92;99835.77;137165;1276;23050;-82
2024/01/11 02:56:18;;;;;;;221.50;81.30;;;;;;;-8.56;74.29;99822.00;137229;1276;22295;-80
2024/01/11 02:59:21;;;;;;;195.70;76.40;;;;;;;-8.52;74.15;99822.98;137162;1276;22286;-82
2024/01/11 03:02:23;;;;;;;200.70;74.20;;;;;;;-8.44;74.13;99821.64;137193;1254;22733;-82
2024/01/11 03:05:25;;;;;;;209.80;81.60;;;;;;;-8.37;73.86;99825.83;137084;1276;22644;-82
2024/01/11 03:08:28;;;;;;;203.50;77.70;;;;;;;-8.32;73.64;99825.81;137157;1272;22223;-82
2024/01/11 03:11:30;;;;;;;194.00;74.40;;;;;;;-8.30;73.27;99823.57;137144;1254;22564;-82
2024/01/11 03:14:33;;;;;;;222.30;90.60;;;;;;;-8.29;73.05;99827.40;137216;1276;22292;-81
2024/01/11 03:17:35;;;;;;;213.10;88.00;;;;;;;-8.25;72.89;99841.39;137261;1276;22292;-79
2024/01/11 03:20:38;;;;;;;243.00;101.00;;;;;;;-8.26;72.55;99843.50;137223;1270;22371;-82
2024/01/11 03:23:40;;;;;;;242.90;98.60;;;;;;;-8.34;72.53;99848.56;137045;1254;22714;-81
2024/01/11 03:26:43;;;;;;;219.70;85.50;;;;;;;-8.35;72.36;99843.80;137167;1276;22430;-82
2024/01/11 03:29:45;;;;;;;261.80;97.50;;;;;;;-8.37;72.34;99846.98;137203;1276;22287;-83
2024/01/11 03:32:48;;;;;;;264.60;102.90;;;;;;;-8.42;72.10;99845.55;137166;1266;22424;-82
2024/01/11 03:35:50;;;;;;;239.30;93.90;;;;;;;-8.50;72.18;99833.61;137189;1271;22316;-82
2024/01/11 03:38:53;;;;;;;240.60;89.60;;;;;;;-8.60;71.90;99833.28;137215;1255;22630;-82
2024/01/11 03:41:55;;;;;;;236.00;88.30;;;;;;;-8.68;72.14;99833.80;137156;1276;22302;-77
2024/01/11 03:44:57;;;;;;;205.00;79.90;;;;;;;-8.69;72.24;99827.31;137212;1276;22264;-80
2024/01/11 03:48:00;;;;;;;209.90;80.40;;;;;;;-8.62;72.78;99821.63;136932;1276;22679;-79
2024/01/11 03:51:06;;;;;;;198.60;72.80;;;;;;;-8.51;72.85;99813.45;137193;1276;22747;-81
2024/01/11 03:54:08;;;;;;;214.80;81.90;;;;;;;-8.39;73.21;99798.50;137150;1276;22624;-80
2024/01/11 03:57:11;;;;;;;205.40;78.00;;;;;;;-8.27;73.37;99799.71;137243;1276;22268;-80
2024/01/11 04:00:13;;;;;;;200.50;76.30;;;;;;;-8.14;73.53;99791.64;137203;1276;22330;-80
2024/01/11 04:03:16;;;;;;;216.20;82.50;;;;;;;-8.01;73.51;99793.73;137219;1276;22283;-81
2024/01/11 04:06:18;;;;;;;204.30;81.10;;;;;;;-7.91;73.42;99787.46;137252;1276;22478;-80
2024/01/11 04:09:21;;;;;;;183.60;75.20;;;;;;;-7.84;73.34;99788.71;137242;1276;22296;-80
2024/01/11 04:12:23;;;;;;;192.50;80.20;;;;;;;-7.80;73.49;99781.67;137266;1276;22382;-81
2024/01/11 04:15:26;;;;;;;202.70;78.50;;;;;;;-7.86;73.33;99773.09;137299;1275;22223;-80
2024/01/11 04:18:28;;;;;;;202.40;78.90;;;;;;;-7.93;73.50;99772.40;137275;1275;22218;-81
2024/01/11 04:21:31;;;;;;;184.80;75.20;;;;;;;-8.01;73.44;99773.02;137262;1275;22621;-80
2024/01/11 04:24:33;;;;;;;194.00;71.40;;;;;;;-8.03;73.53;99765.39;137228;1275;22310;-81
2024/01/11 04:27:35;;;;;;;203.50;83.20;;;;;;;-8.08;73.77;99766.11;137293;1275;22302;-80
2024/01/11 04:30:38;;;;;;;181.90;70.10;;;;;;;-8.17;73.73;99771.22;137322;1275;22303;-80
2024/01/11 04:33:40;;;;;;;156.40;61.50;;;;;;;-8.27;73.27;99764.80;137170;1275;22158;-81
2024/01/11 04:36:43;;;;;;;177.50;67.30;;;;;;;-8.34;73.64;99766.56;137053;1275;22572;-80
2024/01/11 04:39:45;;;;;;;162.30;65.30;;;;;;;-7.83;81.56;99745.08;137313;1276;22339;-81
2024/01/11 04:42:48;;;;;;;151.90;57.40;;;;;;;-7.81;75.03;99735.28;137364;1254;22678;-80
2024/01/11 04:45:50;;;;;;;173.10;65.70;;;;;;;-8.01;73.89;99732.16;137208;1276;22303;-80
2024/01/11 04:48:53;;;;;;;161.10;60.20;;;;;;;-8.09;73.76;99733.83;137329;1275;22301;-81
2024/01/11 04:51:56;;;;;;;164.30;60.50;;;;;;;-8.15;73.42;99734.84;137291;1275;22325;-80
2024/01/11 04:54:58;;;;;;;173.90;66.90;;;;;;;-8.16;75.23;99739.27;137289;1275;22326;-80
2024/01/11 04:58:01;;;;;;;167.90;63.00;;;;;;;-7.91;75.83;99725.63;137281;1275;22321;-80
2024/01/11 05:01:03;;;;;;;158.30;58.90;;;;;;;-7.99;73.99;99712.21;137230;1275;22352;-80
2024/01/11 05:04:06;;;;;;;152.40;56.90;;;;;;;-8.08;73.46;99732.07;137207;1275;22273;-80
2024/01/11 05:07:08;;;;;;;146.90;53.80;;;;;;;-8.14;73.30;99728.99;137251;1275;22252;-79
2024/01/11 05:10:11;;;;;;;145.20;55.20;;;;;;;-8.21;73.05;99723.56;137162;1275;22368;-79
2024/01/11 05:13:13;;;;;;;161.20;57.90;;;;;;;-8.29;73.05;99723.62;137206;1275;22514;-81
2024/01/11 05:16:16;;;;;;;144.30;52.50;;;;;;;-8.31;73.18;99727.61;137237;1275;22360;-78
2024/01/11 05:19:19;;;;;;;149.40;54.50;;;;;;;-8.28;73.51;99722.36;137193;1275;22307;-79
2024/01/11 05:22:22;;;;;;;142.70;52.90;;;;;;;-8.23;73.93;99699.39;137227;1272;22405;-79
2024/01/11 05:25:24;;;;;;;129.70;48.00;;;;;;;-8.23;73.58;99693.79;137193;1275;22253;-80
2024/01/11 05:28:27;;;;;;;144.00;52.40;;;;;;;-8.24;73.36;99702.17;137194;1275;22334;-79
2024/01/11 05:31:32;;;;;;;136.30;49.00;;;;;;;-8.17;73.18;99704.52;137235;1275;22298;-79
2024/01/11 05:34:34;;;;;;;150.10;52.20;;;;;;;-8.08;73.39;99692.78;137233;1276;22271;-80
2024/01/11 05:37:37;;;;;;;152.30;57.70;;;;;;;-8.00;73.59;99676.33;137004;1275;22218;-79
2024/01/11 05:40:39;;;;;;;154.40;57.50;;;;;;;-7.94;73.61;99664.73;137309;1275;22476;-79
2024/01/11 05:43:42;;;;;;;149.30;62.20;;;;;;;-7.93;73.50;99650.14;137297;1275;22309;-80
2024/01/11 05:46:45;;;;;;;143.70;52.80;;;;;;;-7.87;72.88;99647.72;137250;1275;22278;-79
2024/01/11 05:49:47;;;;;;;132.90;51.10;;;;;;;-7.81;72.77;99639.81;137146;1275;22276;-79
2024/01/11 05:52:50;;;;;;;139.50;51.80;;;;;;;-7.74;72.34;99638.60;137127;1272;22377;-80
2024/01/11 05:55:53;;;;;;;144.60;57.60;;;;;;;-7.64;72.43;99640.40;137097;1276;22301;-79
2024/01/11 05:58:55;;;;;;;121.20;50.00;;;;;;;-7.46;72.65;99638.04;137119;1275;23207;-80
2024/01/11 06:02:00;;;;;;;139.20;64.00;;;;;;;-7.27;72.31;99630.59;137119;1276;22309;-79
2024/01/11 06:05:02;;;;;;;162.70;64.20;;;;;;;-7.12;72.41;99625.90;137144;1276;22280;-80
2024/01/11 06:08:05;;;;;;;169.00;68.70;;;;;;;-7.00;71.50;99633.52;137147;1276;22287;-79
2024/01/11 06:11:08;;;;;;;160.30;58.30;;;;;;;-6.93;71.19;99627.99;137138;1276;22342;-78
2024/01/11 06:14:10;;;;;;;160.90;66.00;;;;;;;-6.89;71.03;99620.94;137225;1275;22833;-78
2024/01/11 06:17:12;;;;;;;134.50;56.20;;;;;;;-6.84;71.65;99623.55;137173;1275;23130;-79
2024/01/11 06:20:15;;;;;;;142.90;56.40;;;;;;;-6.80;71.60;99618.67;137166;1276;22896;-81
2024/01/11 06:23:19;;;;;;;154.40;62.60;;;;;;;-6.79;71.52;99626.58;137191;1275;22395;-81
2024/01/11 06:26:23;;;;;;;164.80;64.80;;;;;;;-6.73;71.59;99625.59;137285;1276;22219;-82
2024/01/11 06:29:25;;;;;;;142.80;56.00;;;;;;;-6.63;71.47;99622.77;137196;1275;22269;-79
2024/01/11 06:32:28;;;;;;;161.50;64.30;;;;;;;-6.51;71.80;99604.77;137206;1273;22831;-78
2024/01/11 06:35:31;;;;;;;153.40;57.90;;;;;;;-6.45;70.88;99609.52;137224;1275;22256;-79
2024/01/11 06:38:33;;;;;;;140.60;60.10;;;;;;;-6.47;70.70;99598.38;137180;1275;22830;-79
2024/01/11 06:41:36;;;;;;;136.90;54.00;;;;;;;-6.45;70.68;99590.45;137162;1275;22364;-78
2024/01/11 06:44:39;;;;;;;139.40;53.60;;;;;;;-6.37;70.88;99574.46;137186;1272;22314;-79
2024/01/11 06:47:48;;;;;;;151.60;64.00;;;;;;;-6.25;70.40;99586.88;137161;1275;22206;-79
2024/01/11 06:50:51;;;;;;;151.80;57.50;;;;;;;-6.12;69.45;99596.49;137124;1275;22292;-78
2024/01/11 06:53:53;;;;;;;142.30;53.30;;;;;;;-5.97;70.08;99571.34;137174;1275;22923;-79
2024/01/11 06:56:56;;;;;;;153.30;58.60;;;;;;;-5.79;69.57;99572.53;137225;1275;22807;-79
2024/01/11 06:59:58;;;;;;;140.90;58.80;;;;;;;-5.65;69.06;99579.44;137193;1275;22284;-78
2024/01/11 07:03:02;;;;;;;140.60;57.10;;;;;;;-5.49;68.76;99582.89;137199;1276;23140;-79
2024/01/11 07:06:05;;;;;;;149.20;58.10;;;;;;;-5.34;68.29;99580.48;137202;1275;22302;-79
2024/01/11 07:09:08;;;;;;;140.00;55.90;;;;;;;-5.16;67.78;99574.02;137169;1275;22211;-79
2024/01/11 07:12:10;;;;;;;137.50;57.20;;;;;;;-5.01;67.92;99564.11;137174;1275;22291;-79
2024/01/11 07:15:12;;;;;;;152.80;62.90;;;;;;;-4.78;67.60;99576.34;137182;1275;23056;-78
2024/01/11 07:18:15;;;;;;;148.80;64.10;;;;;;;-4.63;65.44;99564.08;137203;1275;22144;-79
2024/01/11 07:21:18;;;;;;;159.30;67.30;;;;;;;-4.49;64.27;99555.46;137215;1275;22254;-78
2024/01/11 07:24:21;;;;;;;139.10;54.50;;;;;;;-4.41;63.80;99550.58;137232;1275;22716;-78
2024/01/11 07:27:23;;;;;;;144.80;60.80;;;;;;;-4.31;62.58;99561.45;137239;1275;22251;-79
2024/01/11 07:30:25;;;;;;;138.80;55.80;;;;;;;-4.26;62.17;99553.84;137201;1275;22205;-80
2024/01/11 07:33:29;;;;;;;153.00;62.30;;;;;;;-4.23;61.75;99558.16;136989;1275;22245;-79
2024/01/11 07:36:31;;;;;;;189.30;75.80;;;;;;;-4.23;59.93;99573.28;137252;1275;22654;-79
2024/01/11 07:39:34;;;;;;;170.50;66.30;;;;;;;-4.31;60.22;99577.07;137365;1275;22214;-79
2024/01/11 07:42:36;;;;;;;146.80;58.70;;;;;;;-4.40;61.05;99566.91;137311;1275;22241;-79
2024/01/11 07:45:41;;;;;;;151.10;59.30;;;;;;;-4.45;60.53;99558.34;137221;1275;22552;-79
2024/01/11 07:48:43;;;;;;;173.50;70.50;;;;;;;-4.52;60.10;99575.52;137223;1275;22206;-79
2024/01/11 07:51:45;;;;;;;166.30;68.20;;;;;;;-4.55;60.27;99593.90;137209;1267;22318;-79
2024/01/11 07:54:48;;;;;;;141.50;60.10;;;;;;;-4.56;60.99;99594.33;137194;1275;22757;-80
2024/01/11 07:57:51;;;;;;;146.10;57.60;;;;;;;-4.52;61.38;99582.64;137198;1275;22224;-79
2024/01/11 08:00:54;;;;;;;155.90;63.20;;;;;;;-4.46;61.15;99588.69;137258;1275;22250;-79
2024/01/11 08:03:56;;;;;;;195.00;78.40;;;;;;;-4.43;60.88;99585.23;137194;1275;22284;-79
2024/01/11 08:06:59;;;;;;;202.80;82.10;;;;;;;-4.38;61.13;99580.88;137195;1275;22302;-78
2024/01/11 08:10:03;;;;;;;165.70;70.10;;;;;;;-4.30;60.72;99579.85;137195;1275;22556;-79
2024/01/11 08:13:06;;;;;;;173.50;69.90;;;;;;;-4.26;60.92;99576.66;137111;1275;22275;-79
2024/01/11 08:16:09;;;;;;;169.20;69.80;;;;;;;-4.22;60.56;99572.20;137185;1275;22729;-79
2024/01/11 08:19:13;;;;;;;164.20;69.20;;;;;;;-4.16;60.98;99574.74;137221;1275;22740;-80
2024/01/11 08:22:16;;;;;;;153.40;66.50;;;;;;;-4.10;60.88;99576.57;137200;1275;23037;-81
2024/01/11 08:25:18;;;;;;;152.10;65.70;;;;;;;-4.04;60.45;99575.85;137189;1275;22768;-79
2024/01/11 08:28:21;;;;;;;154.70;63.90;;;;;;;-4.04;60.47;99574.33;137162;1275;22266;-79
2024/01/11 08:31:23;;;;;;;158.60;68.90;;;;;;;-4.02;60.73;99569.70;137124;1275;22293;-77
2024/01/11 08:34:26;;;;;;;174.80;71.50;;;;;;;-4.00;60.61;99562.27;137172;1275;22163;-80
2024/01/11 08:37:28;;;;;;;167.40;71.30;;;;;;;-3.98;60.54;99558.98;137194;1275;22274;-80
2024/01/11 08:40:31;;;;;;;171.50;71.00;;;;;;;-3.97;60.77;99550.23;137191;1275;22242;-79
2024/01/11 08:43:33;;;;;;;181.80;73.40;;;;;;;-3.97;60.59;99541.60;137232;1275;22198;-79
2024/01/11 08:46:36;;;;;;;183.80;77.20;;;;;;;-3.96;60.33;99546.58;137241;1275;22237;-79
2024/01/11 08:49:41;;;;;;;;;;;;;;;-3.92;60.61;99552.17;137190;1275;22349;-79
2024/01/11 08:52:43;;;;;;;175.00;73.70;;;;;;;-3.77;61.13;99558.42;137204;1275;22214;-79
2024/01/11 08:55:46;;;;;;;169.10;70.80;;;;;;;-3.56;60.54;99560.27;137168;1275;22206;-78
2024/01/11 08:58:49;;;;;;;181.10;77.40;;;;;;;-3.43;60.15;99558.90;137189;1275;22306;-79
2024/01/11 09:01:51;;;;;;;177.90;75.70;;;;;;;-3.30;59.42;99557.08;137191;1276;22840;-80
2024/01/11 09:04:53;;;;;;;192.80;78.20;;;;;;;-3.13;59.80;99557.38;137220;1266;22309;-79
2024/01/11 09:07:56;;;;;;;177.20;75.90;;;;;;;-2.92;59.12;99555.91;137163;1276;22398;-78
2024/01/11 09:10:59;;;;;;;174.10;72.90;;;;;;;-2.87;58.63;99549.45;137172;1276;22211;-78
2024/01/11 09:14:02;;;;;;;172.80;72.40;;;;;;;-2.86;59.19;99553.27;137149;1276;22228;-79
2024/01/11 09:17:06;;;;;;;176.50;76.40;;;;;;;-2.88;59.27;99552.08;137195;1275;22345;-79
2024/01/11 09:20:09;;;;;;;171.70;74.30;;;;;;;-2.97;59.11;99568.56;137174;1276;22305;-78
2024/01/11 09:23:11;;;;;;;176.50;77.60;;;;;;;-3.15;59.47;99562.60;137155;1276;22278;-79
2024/01/11 09:26:14;;;;;;;173.50;73.10;;;;;;;-3.23;59.98;99554.55;137188;1276;22275;-79
2024/01/11 09:29:16;;;;;;;173.30;73.80;;;;;;;-3.28;60.37;99540.04;137196;1275;22324;-79
2024/01/11 09:32:20;;;;;;;159.80;66.50;;;;;;;-3.33;60.43;99535.52;137216;1276;22295;-78
2024/01/11 09:35:22;;;;;;;172.80;76.70;;;;;;;-3.35;60.91;99527.58;137172;1276;22181;-78
2024/01/11 09:38:25;;;;;;;197.10;76.60;;;;;;;-3.32;61.34;99510.09;137340;1276;22218;-79
2024/01/11 09:41:30;;;;;;;216.40;87.90;;;;;;;-3.33;61.10;99512.58;137353;1273;22337;-79
2024/01/11 09:44:33;;;;;;;199.90;82.90;;;;;;;-3.34;61.48;99517.95;137226;1275;22335;-79
2024/01/11 09:47:35;;;;;;;212.30;89.20;;;;;;;-3.36;61.60;99530.52;137226;1276;22689;-79
2024/01/11 09:50:38;;;;;;;185.30;80.00;;;;;;;-3.37;62.08;99535.27;137216;1276;22225;-78
2024/01/11 09:53:40;;;;;;;171.80;75.20;;;;;;;-3.28;62.46;99534.95;137240;1275;22189;-79
2024/01/11 09:56:43;;;;;;;185.70;76.70;;;;;;;-3.24;62.32;99539.36;137129;1276;22169;-79
2024/01/11 09:59:45;;;;;;;156.10;66.10;;;;;;;-3.18;62.65;99538.89;137210;1273;22290;-79
2024/01/11 10:02:47;;;;;;;150.80;68.30;;;;;;;-3.09;62.77;99532.06;137225;1276;23070;-79
2024/01/11 10:05:50;;;;;;;155.50;71.10;;;;;;;-3.12;62.66;99543.80;137199;1276;22209;-79
2024/01/11 10:08:53;;;;;;;158.00;68.70;;;;;;;-3.18;63.17;99546.91;137180;1269;22275;-79
2024/01/11 10:11:55;;;;;;;155.70;65.90;;;;;;;-3.20;63.74;99538.96;137130;1276;22659;-79
2024/01/11 10:14:58;;;;;;;166.80;68.60;;;;;;;-3.09;64.27;99522.88;137119;1276;22331;-79
2024/01/11 10:18:00;;;;;;;171.90;70.00;;;;;;;-2.95;63.94;99535.55;137133;1276;22262;-80
2024/01/11 10:21:03;;;;;;;158.30;63.80;;;;;;;-2.93;64.11;99521.27;137212;1275;22401;-80
2024/01/11 10:24:05;;;;;;;149.70;62.00;;;;;;;-2.95;64.24;99521.27;137141;1276;22677;-78
2024/01/11 10:27:08;;;;;;;150.10;64.90;;;;;;;-2.99;64.25;99502.58;137170;1267;22213;-78
2024/01/11 10:30:12;;;;;;;158.50;67.90;;;;;;;-2.96;64.66;99507.58;137035;1264;202157;-78
2024/01/11 10:33:15;;;;;;;175.90;76.40;;;;;;;-2.95;64.56;99523.95;137194;1276;22671;-79
2024/01/11 10:36:17;;;;;;;160.10;67.00;;;;;;;-3.02;64.81;99524.63;137150;1275;22155;-79
2024/01/11 10:39:20;;;;;;;162.50;71.20;;;;;;;-3.01;64.95;99522.80;137228;1275;22228;-79
2024/01/11 10:42:22;;;;;;;141.50;64.70;;;;;;;-3.01;65.34;99524.34;137250;1276;22230;-78
2024/01/11 10:45:25;;;;;;;151.50;66.60;;;;;;;-3.10;65.76;99522.29;137284;1276;22260;-79
2024/01/11 10:48:27;;;;;;;155.60;63.60;;;;;;;-3.17;66.33;99520.41;137285;1276;22201;-79
2024/01/11 10:51:31;;;;;;;151.30;65.10;;;;;;;-3.25;66.53;99512.49;137290;1276;22688;-79
2024/01/11 10:54:34;;;;;;;153.30;69.10;;;;;;;-3.33;66.96;99509.18;137256;1276;22234;-79
2024/01/11 10:57:36;;;;;;;162.30;66.60;;;;;;;-3.35;67.12;99498.32;137246;1260;22934;-78
2024/01/11 11:00:39;;;;;;;145.60;63.30;;;;;;;-3.26;67.32;99482.34;137255;1276;22327;-79
2024/01/11 11:03:43;;;;;;;163.60;68.60;;;;;;;-3.18;67.47;99476.57;137170;1276;22286;-79
2024/01/11 11:06:46;;;;;;;151.10;63.10;;;;;;;-3.18;68.05;99469.75;137149;1276;22208;-79
2024/01/11 11:09:48;;;;;;;141.10;62.80;;;;;;;-3.23;68.21;99464.66;137252;1275;22227;-77
2024/01/11 11:12:51;;;;;;;146.40;64.20;;;;;;;-3.28;68.86;99459.15;137267;1264;23171;-78
2024/01/11 11:15:53;;;;;;;174.00;73.40;;;;;;;-3.34;69.17;99465.53;137257;1276;22386;-78
2024/01/11 11:18:58;;;;;;;170.20;71.30;;;;;;;-3.35;69.67;99471.10;137309;1276;22366;-80
2024/01/11 11:22:01;;;;;;;162.50;66.70;;;;;;;-3.27;69.84;99451.41;137278;1275;22247;-79
2024/01/11 11:25:05;;;;;;;169.10;69.60;;;;;;;-3.18;69.70;99450.36;137266;1275;22224;-80
2024/01/11 11:28:08;;;;;;;145.00;63.70;;;;;;;-1.34;89.75;99449.89;137256;1275;22207;-79
2024/01/11 11:31:10;;;;;;;154.10;66.60;;;;;;;-1.06;66.86;99457.35;137277;1275;22237;-79
2024/01/11 11:34:13;;;;;;;150.70;65.40;;;;;;;-1.72;66.90;99461.50;137099;1275;22299;-80
2024/01/11 11:37:15;;;;;;;148.30;64.10;;;;;;;-2.19;67.82;99463.98;137224;1275;22232;-79
2024/01/11 11:40:18;;;;;;;146.40;66.40;;;;;;;-2.50;69.02;99454.95;136895;1275;22455;-78
2024/01/11 11:43:20;;;;;;;163.30;68.70;;;;;;;-2.70;69.69;99443.23;137348;1275;22704;-79
2024/01/11 11:46:23;;;;;;;152.80;62.00;;;;;;;-2.90;70.35;99444.66;137281;1275;22288;-80
2024/01/11 11:49:25;;;;;;;157.90;71.90;;;;;;;-3.04;71.47;99448.02;137205;1275;22252;-79
2024/01/11 11:52:28;;;;;;;138.10;58.90;;;;;;;-3.14;71.90;99449.13;137168;1275;22479;-77
2024/01/11 11:55:30;;;;;;;142.00;64.10;;;;;;;-3.13;72.36;99448.34;137190;1275;22812;-79
2024/01/11 11:58:33;;;;;;;141.30;60.90;;;;;;;-3.13;72.62;99449.23;137210;1275;22263;-79
2024/01/11 12:01:36;;;;;;;171.80;74.80;;;;;;;-3.15;73.01;99442.58;137212;1269;22213;-79
2024/01/11 12:04:38;;;;;;;169.60;72.90;;;;;;;-3.15;73.26;99438.65;137236;1275;22161;-78
2024/01/11 12:07:41;;;;;;;164.80;69.90;;;;;;;-2.98;73.17;99431.64;137231;1275;22249;-79
2024/01/11 12:10:43;;;;;;;167.40;75.50;;;;;;;-2.86;72.90;99434.38;137222;1275;22233;-78
2024/01/11 12:13:46;;;;;;;138.20;62.40;;;;;;;-2.76;72.77;99416.86;137227;1275;22195;-79
2024/01/11 12:16:48;;;;;;;135.80;59.80;;;;;;;-2.67;72.81;99408.19;137204;1275;22194;-78
2024/01/11 12:19:50;;;;;;;127.90;58.70;;;;;;;-2.56;72.76;99403.73;137162;1264;22283;-78
2024/01/11 12:22:53;;;;;;;139.30;61.50;;;;;;;-2.49;72.60;99389.71;137204;1275;22300;-78
2024/01/11 12:25:56;;;;;;;144.10;62.20;;;;;;;-2.36;77.00;99388.76;137248;1275;22801;-79
2024/01/11 12:28:58;;;;;;;138.10;60.80;;;;;;;-1.61;88.50;99373.52;137207;1275;22259;-79
2024/01/11 12:32:01;;;;;;;133.40;58.50;;;;;;;-0.19;81.83;99369.01;137218;1275;22274;-77
2024/01/11 12:35:05;;;;;;;137.70;61.40;;;;;;;-0.04;85.49;99358.98;137223;1275;22335;-79
2024/01/11 12:38:13;;;;;;;116.90;53.60;;;;;;;0.40;75.46;99358.79;137217;1275;22610;-78
2024/01/11 12:41:16;;;;;;;133.20;58.10;;;;;;;-0.27;68.90;99358.06;137292;1272;22201;-79
2024/01/11 12:44:19;;;;;;;148.90;64.90;;;;;;;-1.01;70.25;99350.06;137285;1275;22272;-79
2024/01/11 12:47:22;;;;;;;136.90;61.60;;;;;;;-1.50;71.11;99347.16;137229;1275;22638;-78
2024/01/11 12:50:24;;;;;;;121.80;51.10;;;;;;;-1.82;72.38;99339.34;137224;1275;22283;-79
2024/01/11 12:53:28;;;;;;;144.80;63.10;;;;;;;-2.04;74.10;99342.09;137230;1275;22805;-78
2024/01/11 12:56:30;;;;;;;125.10;54.70;;;;;;;-2.28;74.45;99346.71;137177;1275;22142;-78
2024/01/11 12:59:33;;;;;;;123.40;54.60;;;;;;;-2.47;76.01;99340.23;137170;1275;22235;-78
2024/01/11 13:02:35;;;;;;;139.10;57.60;;;;;;;-2.63;77.40;99340.33;137139;1275;23113;-78
2024/01/11 13:05:38;;;;;;;131.90;57.80;;;;;;;-2.78;79.37;99348.63;137160;1275;22363;-77
2024/01/11 13:08:41;;;;;;;129.60;59.10;;;;;;;-2.91;80.07;99354.31;137079;1275;22703;-76
2024/01/11 13:11:43;;;;;;;120.70;54.70;;;;;;;-3.02;81.73;99359.98;137091;1275;22271;-78
2024/01/11 13:14:47;;;;;;;128.90;59.50;;;;;;;-3.10;82.19;99354.41;137080;1275;22910;-80
2024/01/11 13:17:49;;;;;;;104.70;49.60;;;;;;;-3.17;83.58;99355.80;137133;1275;22625;-79
2024/01/11 13:20:52;;;;;;;123.60;53.30;;;;;;;-3.30;85.76;99355.75;137145;1275;22253;-80
2024/01/11 13:23:54;;;;;;;139.90;59.20;;;;;;;-3.38;86.34;99364.44;137145;1275;22270;-79
2024/01/11 13:26:57;;;;;;;164.20;66.90;;;;;;;-3.39;86.55;99370.00;137155;1275;22328;-79
2024/01/11 13:29:59;;;;;;;153.40;62.30;;;;;;;-3.42;86.71;99375.21;137170;1275;22310;-79
2024/01/11 13:33:02;;;;;;;164.20;66.50;;;;;;;-3.44;87.42;99378.01;137218;1275;22191;-79
2024/01/11 13:36:04;;;;;;;161.20;69.70;;;;;;;-3.45;88.50;99380.27;137069;1275;22293;-79
2024/01/11 13:39:08;;;;;;;142.40;58.90;;;;;;;-3.53;89.60;99382.17;137253;1275;22274;-79
2024/01/11 13:42:11;;;;;;;151.60;66.30;;;;;;;-3.63;91.10;99385.85;137356;1275;22696;-80